sensor_id;sensor_type;location;lat;lon;timestamp;P1;durP1;ratioP1;P2;durP2;ratioP2
44222;SDS011;29895;48.804;9.386;2023-02-14T00:01:40;45.72;;;16.65;;
44222;SDS011;29895;48.804;9.386;2023-02-14T00:04:06;50.95;;;17.05;;
44222;SDS011;29895;48.804;9.386;2023-02-14T00:06:33;53.63;;;20.17;;
44222;SDS011;29895;48.804;9.386;2023-02-14T00:09:01;50.33;;;18.58;;
44222;SDS011;29895;48.804;9.386;2023-02-14T00:11:27;46.20;;;17.73;;
44222;SDS011;29895;48.804;9.386;2023-02-14T00:13:54;51.92;;;19.00;;
44222;SDS011;29895;48.804;9.386;2023-02-14T00:16:38;58.65;;;19.38;;
44222;SDS011;29895;48.804;9.386;2023-02-14T00:19:04;49.13;;;18.10;;
44222;SDS011;29895;48.804;9.386;2023-02-14T00:21:30;57.45;;;18.75;;
44222;SDS011;29895;48.804;9.386;2023-02-14T00:23:57;46.88;;;16.98;;
44222;SDS011;29895;48.804;9.386;2023-02-14T00:26:23;58.13;;;18.65;;
44222;SDS011;29895;48.804;9.386;2023-02-14T00:28:48;48.72;;;17.70;;
44222;SDS011;29895;48.804;9.386;2023-02-14T00:31:14;50.80;;;17.48;;
44222;SDS011;29895;48.804;9.386;2023-02-14T00:33:40;54.10;;;18.10;;
44222;SDS011;29895;48.804;9.386;2023-02-14T00:36:05;53.88;;;18.60;;
44222;SDS011;29895;48.804;9.386;2023-02-14T00:38:32;53.45;;;18.63;;
44222;SDS011;29895;48.804;9.386;2023-02-14T00:40:58;54.95;;;18.10;;
44222;SDS011;29895;48.804;9.386;2023-02-14T00:43:24;46.10;;;17.30;;
44222;SDS011;29895;48.804;9.386;2023-02-14T00:45:50;47.13;;;17.38;;
44222;SDS011;29895;48.804;9.386;2023-02-14T00:48:15;56.38;;;19.10;;
44222;SDS011;29895;48.804;9.386;2023-02-14T00:50:41;53.72;;;19.15;;
44222;SDS011;29895;48.804;9.386;2023-02-14T00:53:09;55.45;;;19.98;;
44222;SDS011;29895;48.804;9.386;2023-02-14T00:55:35;45.90;;;17.67;;
44222;SDS011;29895;48.804;9.386;2023-02-14T00:58:01;55.13;;;19.15;;
44222;SDS011;29895;48.804;9.386;2023-02-14T01:00:27;54.28;;;18.77;;
44222;SDS011;29895;48.804;9.386;2023-02-14T01:02:52;57.60;;;19.90;;
44222;SDS011;29895;48.804;9.386;2023-02-14T01:05:18;57.78;;;19.60;;
44222;SDS011;29895;48.804;9.386;2023-02-14T01:07:44;56.35;;;18.90;;
44222;SDS011;29895;48.804;9.386;2023-02-14T01:10:09;51.78;;;18.17;;
44222;SDS011;29895;48.804;9.386;2023-02-14T01:12:35;47.70;;;19.08;;
44222;SDS011;29895;48.804;9.386;2023-02-14T01:15:01;48.58;;;19.10;;
44222;SDS011;29895;48.804;9.386;2023-02-14T01:17:29;50.50;;;18.42;;
44222;SDS011;29895;48.804;9.386;2023-02-14T01:19:55;52.60;;;19.02;;
44222;SDS011;29895;48.804;9.386;2023-02-14T01:22:21;52.28;;;17.42;;
44222;SDS011;29895;48.804;9.386;2023-02-14T01:24:46;53.92;;;20.60;;
44222;SDS011;29895;48.804;9.386;2023-02-14T01:27:12;57.45;;;19.33;;
44222;SDS011;29895;48.804;9.386;2023-02-14T01:29:38;55.30;;;19.30;;
44222;SDS011;29895;48.804;9.386;2023-02-14T01:32:03;50.88;;;19.45;;
44222;SDS011;29895;48.804;9.386;2023-02-14T01:34:29;55.78;;;18.73;;
44222;SDS011;29895;48.804;9.386;2023-02-14T01:36:55;52.75;;;19.25;;
44222;SDS011;29895;48.804;9.386;2023-02-14T01:39:21;48.50;;;18.25;;
44222;SDS011;29895;48.804;9.386;2023-02-14T01:41:47;50.10;;;18.42;;
44222;SDS011;29895;48.804;9.386;2023-02-14T01:46:38;46.55;;;16.50;;
44222;SDS011;29895;48.804;9.386;2023-02-14T01:51:43;53.35;;;18.95;;
44222;SDS011;29895;48.804;9.386;2023-02-14T01:54:16;53.35;;;19.13;;
44222;SDS011;29895;48.804;9.386;2023-02-14T01:56:47;55.50;;;18.98;;
44222;SDS011;29895;48.804;9.386;2023-02-14T01:59:18;54.17;;;19.30;;
44222;SDS011;29895;48.804;9.386;2023-02-14T02:01:47;55.60;;;19.30;;
44222;SDS011;29895;48.804;9.386;2023-02-14T02:04:15;50.70;;;18.23;;
44222;SDS011;29895;48.804;9.386;2023-02-14T02:06:47;54.33;;;18.92;;
44222;SDS011;29895;48.804;9.386;2023-02-14T02:09:23;61.63;;;20.23;;
44222;SDS011;29895;48.804;9.386;2023-02-14T02:12:01;55.42;;;18.95;;
44222;SDS011;29895;48.804;9.386;2023-02-14T02:14:28;52.78;;;18.90;;
44222;SDS011;29895;48.804;9.386;2023-02-14T02:22:55;59.88;;;19.35;;
44222;SDS011;29895;48.804;9.386;2023-02-14T02:45:05;57.72;;;19.25;;
44222;SDS011;29895;48.804;9.386;2023-02-14T02:48:09;63.40;;;18.70;;
44222;SDS011;29895;48.804;9.386;2023-02-14T02:50:45;56.05;;;19.50;;
44222;SDS011;29895;48.804;9.386;2023-02-14T02:53:47;55.50;;;19.15;;
44222;SDS011;29895;48.804;9.386;2023-02-14T02:56:22;59.63;;;19.40;;
44222;SDS011;29895;48.804;9.386;2023-02-14T02:59:15;64.63;;;21.10;;
44222;SDS011;29895;48.804;9.386;2023-02-14T03:04:34;55.90;;;19.55;;
44222;SDS011;29895;48.804;9.386;2023-02-14T03:07:19;59.55;;;18.98;;
44222;SDS011;29895;48.804;9.386;2023-02-14T03:10:07;52.67;;;18.60;;
44222;SDS011;29895;48.804;9.386;2023-02-14T03:23:45;59.38;;;20.30;;
44222;SDS011;29895;48.804;9.386;2023-02-14T03:26:33;64.53;;;19.92;;
44222;SDS011;29895;48.804;9.386;2023-02-14T03:29:03;57.58;;;20.50;;
44222;SDS011;29895;48.804;9.386;2023-02-14T03:37:14;58.35;;;20.52;;
44222;SDS011;29895;48.804;9.386;2023-02-14T03:39:53;64.93;;;21.60;;
44222;SDS011;29895;48.804;9.386;2023-02-14T03:42:21;63.83;;;19.65;;
44222;SDS011;29895;48.804;9.386;2023-02-14T03:44:51;60.30;;;20.70;;
44222;SDS011;29895;48.804;9.386;2023-02-14T03:47:22;62.15;;;20.65;;
44222;SDS011;29895;48.804;9.386;2023-02-14T03:49:52;59.83;;;21.08;;
44222;SDS011;29895;48.804;9.386;2023-02-14T03:52:24;64.90;;;20.48;;
44222;SDS011;29895;48.804;9.386;2023-02-14T03:54:54;55.63;;;20.42;;
44222;SDS011;29895;48.804;9.386;2023-02-14T03:57:24;52.65;;;20.23;;
44222;SDS011;29895;48.804;9.386;2023-02-14T03:59:56;56.67;;;21.05;;
44222;SDS011;29895;48.804;9.386;2023-02-14T04:02:26;60.85;;;19.95;;
44222;SDS011;29895;48.804;9.386;2023-02-14T04:05:14;60.28;;;19.80;;
44222;SDS011;29895;48.804;9.386;2023-02-14T04:07:47;59.47;;;19.92;;
44222;SDS011;29895;48.804;9.386;2023-02-14T04:10:16;61.83;;;21.40;;
44222;SDS011;29895;48.804;9.386;2023-02-14T04:12:42;48.22;;;19.08;;
44222;SDS011;29895;48.804;9.386;2023-02-14T04:15:08;58.22;;;20.33;;
44222;SDS011;29895;48.804;9.386;2023-02-14T04:17:35;53.70;;;19.30;;
44222;SDS011;29895;48.804;9.386;2023-02-14T04:20:19;59.13;;;20.17;;
44222;SDS011;29895;48.804;9.386;2023-02-14T04:22:45;60.75;;;20.95;;
44222;SDS011;29895;48.804;9.386;2023-02-14T04:25:11;57.55;;;19.08;;
44222;SDS011;29895;48.804;9.386;2023-02-14T04:27:37;61.42;;;19.67;;
44222;SDS011;29895;48.804;9.386;2023-02-14T04:30:03;55.05;;;19.77;;
44222;SDS011;29895;48.804;9.386;2023-02-14T04:32:29;56.83;;;19.95;;
44222;SDS011;29895;48.804;9.386;2023-02-14T04:34:55;58.83;;;21.17;;
44222;SDS011;29895;48.804;9.386;2023-02-14T04:37:21;60.10;;;19.98;;
44222;SDS011;29895;48.804;9.386;2023-02-14T04:39:46;61.85;;;21.05;;
44222;SDS011;29895;48.804;9.386;2023-02-14T04:42:12;57.75;;;20.33;;
44222;SDS011;29895;48.804;9.386;2023-02-14T04:44:38;54.95;;;19.70;;
44222;SDS011;29895;48.804;9.386;2023-02-14T04:47:05;63.83;;;20.38;;
44222;SDS011;29895;48.804;9.386;2023-02-14T04:49:31;62.35;;;20.45;;
44222;SDS011;29895;48.804;9.386;2023-02-14T04:51:57;56.08;;;21.25;;
44222;SDS011;29895;48.804;9.386;2023-02-14T04:54:23;67.25;;;21.17;;
44222;SDS011;29895;48.804;9.386;2023-02-14T04:56:49;65.20;;;22.70;;
44222;SDS011;29895;48.804;9.386;2023-02-14T04:59:14;58.22;;;20.50;;
44222;SDS011;29895;48.804;9.386;2023-02-14T05:01:40;67.40;;;22.30;;
44222;SDS011;29895;48.804;9.386;2023-02-14T05:04:06;60.30;;;21.95;;
44222;SDS011;29895;48.804;9.386;2023-02-14T05:06:32;61.70;;;21.83;;
44222;SDS011;29895;48.804;9.386;2023-02-14T05:08:58;65.05;;;21.73;;
44222;SDS011;29895;48.804;9.386;2023-02-14T05:11:25;57.05;;;21.15;;
44222;SDS011;29895;48.804;9.386;2023-02-14T05:13:52;65.07;;;21.38;;
44222;SDS011;29895;48.804;9.386;2023-02-14T05:16:18;64.95;;;22.23;;
44222;SDS011;29895;48.804;9.386;2023-02-14T05:18:43;63.88;;;22.15;;
44222;SDS011;29895;48.804;9.386;2023-02-14T05:21:09;61.47;;;21.17;;
44222;SDS011;29895;48.804;9.386;2023-02-14T05:23:35;60.95;;;21.73;;
44222;SDS011;29895;48.804;9.386;2023-02-14T05:26:02;55.17;;;20.23;;
44222;SDS011;29895;48.804;9.386;2023-02-14T05:28:27;55.78;;;20.70;;
44222;SDS011;29895;48.804;9.386;2023-02-14T05:30:53;56.85;;;19.95;;
44222;SDS011;29895;48.804;9.386;2023-02-14T05:33:20;53.40;;;19.35;;
44222;SDS011;29895;48.804;9.386;2023-02-14T05:35:46;59.65;;;19.73;;
44222;SDS011;29895;48.804;9.386;2023-02-14T05:38:12;64.38;;;20.50;;
44222;SDS011;29895;48.804;9.386;2023-02-14T05:40:38;50.15;;;19.23;;
44222;SDS011;29895;48.804;9.386;2023-02-14T05:43:04;56.40;;;19.98;;
44222;SDS011;29895;48.804;9.386;2023-02-14T05:45:30;57.05;;;20.25;;
44222;SDS011;29895;48.804;9.386;2023-02-14T05:47:56;60.85;;;20.33;;
44222;SDS011;29895;48.804;9.386;2023-02-14T05:50:22;58.67;;;19.48;;
44222;SDS011;29895;48.804;9.386;2023-02-14T05:52:47;60.03;;;20.73;;
44222;SDS011;29895;48.804;9.386;2023-02-14T05:55:13;51.55;;;20.05;;
44222;SDS011;29895;48.804;9.386;2023-02-14T05:57:39;58.38;;;22.08;;
44222;SDS011;29895;48.804;9.386;2023-02-14T06:00:05;64.88;;;21.77;;
44222;SDS011;29895;48.804;9.386;2023-02-14T06:02:32;63.25;;;20.98;;
44222;SDS011;29895;48.804;9.386;2023-02-14T06:04:58;78.13;;;26.30;;
44222;SDS011;29895;48.804;9.386;2023-02-14T06:07:23;96.60;;;32.67;;
44222;SDS011;29895;48.804;9.386;2023-02-14T06:09:49;91.55;;;30.88;;
44222;SDS011;29895;48.804;9.386;2023-02-14T06:12:15;69.40;;;23.20;;
44222;SDS011;29895;48.804;9.386;2023-02-14T06:14:40;61.85;;;23.60;;
44222;SDS011;29895;48.804;9.386;2023-02-14T06:17:07;68.35;;;29.50;;
44222;SDS011;29895;48.804;9.386;2023-02-14T06:19:33;59.35;;;21.27;;
44222;SDS011;29895;48.804;9.386;2023-02-14T06:21:59;58.08;;;19.95;;
44222;SDS011;29895;48.804;9.386;2023-02-14T06:24:25;55.08;;;19.23;;
44222;SDS011;29895;48.804;9.386;2023-02-14T06:26:52;49.38;;;19.10;;
44222;SDS011;29895;48.804;9.386;2023-02-14T06:29:18;55.83;;;20.27;;
44222;SDS011;29895;48.804;9.386;2023-02-14T06:31:43;55.55;;;20.73;;
44222;SDS011;29895;48.804;9.386;2023-02-14T06:34:09;64.90;;;20.67;;
44222;SDS011;29895;48.804;9.386;2023-02-14T06:36:35;56.70;;;20.38;;
44222;SDS011;29895;48.804;9.386;2023-02-14T06:39:01;58.65;;;21.50;;
44222;SDS011;29895;48.804;9.386;2023-02-14T06:41:26;59.40;;;21.45;;
44222;SDS011;29895;48.804;9.386;2023-02-14T06:43:52;60.97;;;20.73;;
44222;SDS011;29895;48.804;9.386;2023-02-14T06:46:18;55.13;;;21.42;;
44222;SDS011;29895;48.804;9.386;2023-02-14T06:48:44;52.97;;;19.42;;
44222;SDS011;29895;48.804;9.386;2023-02-14T06:51:09;59.78;;;21.92;;
44222;SDS011;29895;48.804;9.386;2023-02-14T06:53:37;63.75;;;21.27;;
44222;SDS011;29895;48.804;9.386;2023-02-14T06:56:03;62.85;;;22.10;;
44222;SDS011;29895;48.804;9.386;2023-02-14T06:58:30;65.95;;;21.95;;
44222;SDS011;29895;48.804;9.386;2023-02-14T07:00:56;57.38;;;21.23;;
44222;SDS011;29895;48.804;9.386;2023-02-14T07:03:23;60.70;;;23.00;;
44222;SDS011;29895;48.804;9.386;2023-02-14T07:05:50;56.90;;;20.25;;
44222;SDS011;29895;48.804;9.386;2023-02-14T07:08:16;63.35;;;21.40;;
44222;SDS011;29895;48.804;9.386;2023-02-14T07:10:42;67.55;;;22.08;;
44222;SDS011;29895;48.804;9.386;2023-02-14T07:13:08;69.07;;;22.15;;
44222;SDS011;29895;48.804;9.386;2023-02-14T07:15:33;69.30;;;23.85;;
44222;SDS011;29895;48.804;9.386;2023-02-14T07:17:59;61.47;;;23.45;;
44222;SDS011;29895;48.804;9.386;2023-02-14T07:20:24;68.95;;;23.92;;
44222;SDS011;29895;48.804;9.386;2023-02-14T07:22:50;63.65;;;22.42;;
44222;SDS011;29895;48.804;9.386;2023-02-14T07:25:16;63.08;;;21.38;;
44222;SDS011;29895;48.804;9.386;2023-02-14T07:27:42;67.28;;;22.40;;
44222;SDS011;29895;48.804;9.386;2023-02-14T07:30:08;63.40;;;22.90;;
44222;SDS011;29895;48.804;9.386;2023-02-14T07:32:35;60.63;;;23.08;;
44222;SDS011;29895;48.804;9.386;2023-02-14T07:35:01;57.30;;;23.00;;
44222;SDS011;29895;48.804;9.386;2023-02-14T07:37:27;57.95;;;24.27;;
44222;SDS011;29895;48.804;9.386;2023-02-14T07:39:53;58.65;;;22.27;;
44222;SDS011;29895;48.804;9.386;2023-02-14T07:42:18;53.53;;;20.08;;
44222;SDS011;29895;48.804;9.386;2023-02-14T07:44:44;54.70;;;20.48;;
44222;SDS011;29895;48.804;9.386;2023-02-14T07:47:10;48.45;;;19.63;;
44222;SDS011;29895;48.804;9.386;2023-02-14T07:49:36;58.65;;;22.60;;
44222;SDS011;29895;48.804;9.386;2023-02-14T07:52:02;53.92;;;21.88;;
44222;SDS011;29895;48.804;9.386;2023-02-14T07:54:28;56.75;;;22.92;;
44222;SDS011;29895;48.804;9.386;2023-02-14T07:56:54;55.35;;;23.65;;
44222;SDS011;29895;48.804;9.386;2023-02-14T07:59:20;48.33;;;19.40;;
44222;SDS011;29895;48.804;9.386;2023-02-14T08:01:46;45.38;;;20.05;;
44222;SDS011;29895;48.804;9.386;2023-02-14T08:04:11;53.00;;;20.65;;
44222;SDS011;29895;48.804;9.386;2023-02-14T08:06:40;48.92;;;20.15;;
44222;SDS011;29895;48.804;9.386;2023-02-14T08:09:07;52.05;;;22.40;;
44222;SDS011;29895;48.804;9.386;2023-02-14T08:11:48;54.10;;;22.77;;
44222;SDS011;29895;48.804;9.386;2023-02-14T08:14:34;46.85;;;20.20;;
44222;SDS011;29895;48.804;9.386;2023-02-14T08:17:00;44.25;;;18.55;;
44222;SDS011;29895;48.804;9.386;2023-02-14T08:19:27;44.13;;;18.33;;
44222;SDS011;29895;48.804;9.386;2023-02-14T08:21:53;42.40;;;17.75;;
44222;SDS011;29895;48.804;9.386;2023-02-14T08:24:19;41.95;;;18.35;;
44222;SDS011;29895;48.804;9.386;2023-02-14T08:26:46;42.42;;;18.40;;
44222;SDS011;29895;48.804;9.386;2023-02-14T08:29:12;39.97;;;17.15;;
44222;SDS011;29895;48.804;9.386;2023-02-14T08:31:38;42.78;;;19.50;;
44222;SDS011;29895;48.804;9.386;2023-02-14T08:34:04;38.72;;;18.48;;
44222;SDS011;29895;48.804;9.386;2023-02-14T08:36:30;40.38;;;17.50;;
44222;SDS011;29895;48.804;9.386;2023-02-14T08:38:56;40.25;;;16.50;;
44222;SDS011;29895;48.804;9.386;2023-02-14T08:41:22;39.00;;;17.00;;
44222;SDS011;29895;48.804;9.386;2023-02-14T08:43:48;43.63;;;18.33;;
44222;SDS011;29895;48.804;9.386;2023-02-14T08:46:14;41.30;;;16.55;;
44222;SDS011;29895;48.804;9.386;2023-02-14T08:48:41;38.53;;;17.75;;
44222;SDS011;29895;48.804;9.386;2023-02-14T08:51:08;43.97;;;18.15;;
44222;SDS011;29895;48.804;9.386;2023-02-14T08:53:36;38.22;;;18.27;;
44222;SDS011;29895;48.804;9.386;2023-02-14T08:56:03;39.13;;;19.20;;
44222;SDS011;29895;48.804;9.386;2023-02-14T08:58:34;39.75;;;18.05;;
44222;SDS011;29895;48.804;9.386;2023-02-14T09:01:00;37.30;;;17.73;;
44222;SDS011;29895;48.804;9.386;2023-02-14T09:03:31;38.17;;;18.60;;
44222;SDS011;29895;48.804;9.386;2023-02-14T09:06:01;34.53;;;17.60;;
44222;SDS011;29895;48.804;9.386;2023-02-14T09:08:29;36.75;;;16.80;;
44222;SDS011;29895;48.804;9.386;2023-02-14T09:10:56;37.67;;;17.75;;
44222;SDS011;29895;48.804;9.386;2023-02-14T09:13:22;32.35;;;15.65;;
44222;SDS011;29895;48.804;9.386;2023-02-14T09:15:48;38.97;;;17.48;;
44222;SDS011;29895;48.804;9.386;2023-02-14T09:18:13;31.17;;;15.68;;
44222;SDS011;29895;48.804;9.386;2023-02-14T09:20:40;35.25;;;15.20;;
44222;SDS011;29895;48.804;9.386;2023-02-14T09:23:08;32.58;;;16.10;;
44222;SDS011;29895;48.804;9.386;2023-02-14T09:25:34;38.95;;;16.83;;
44222;SDS011;29895;48.804;9.386;2023-02-14T09:28:00;36.45;;;15.75;;
44222;SDS011;29895;48.804;9.386;2023-02-14T09:30:26;37.55;;;16.42;;
44222;SDS011;29895;48.804;9.386;2023-02-14T09:32:52;35.55;;;17.23;;
44222;SDS011;29895;48.804;9.386;2023-02-14T09:35:18;35.38;;;15.30;;
44222;SDS011;29895;48.804;9.386;2023-02-14T09:37:44;36.55;;;16.02;;
44222;SDS011;29895;48.804;9.386;2023-02-14T09:40:13;32.03;;;15.40;;
44222;SDS011;29895;48.804;9.386;2023-02-14T09:45:19;39.33;;;15.52;;
44222;SDS011;29895;48.804;9.386;2023-02-14T09:47:50;37.30;;;15.95;;
44222;SDS011;29895;48.804;9.386;2023-02-14T09:53:42;33.03;;;15.35;;
44222;SDS011;29895;48.804;9.386;2023-02-14T09:58:46;33.22;;;14.63;;
44222;SDS011;29895;48.804;9.386;2023-02-14T10:01:27;32.88;;;16.15;;
44222;SDS011;29895;48.804;9.386;2023-02-14T10:11:48;36.47;;;17.48;;
44222;SDS011;29895;48.804;9.386;2023-02-14T10:14:16;36.70;;;16.67;;
44222;SDS011;29895;48.804;9.386;2023-02-14T10:16:46;38.83;;;17.13;;
44222;SDS011;29895;48.804;9.386;2023-02-14T10:19:22;32.53;;;15.85;;
44222;SDS011;29895;48.804;9.386;2023-02-14T10:21:56;37.65;;;17.15;;
44222;SDS011;29895;48.804;9.386;2023-02-14T10:24:26;38.35;;;16.90;;
44222;SDS011;29895;48.804;9.386;2023-02-14T10:27:08;36.92;;;16.20;;
44222;SDS011;29895;48.804;9.386;2023-02-14T10:29:41;34.28;;;15.43;;
44222;SDS011;29895;48.804;9.386;2023-02-14T10:32:10;30.13;;;14.57;;
44222;SDS011;29895;48.804;9.386;2023-02-14T10:34:41;34.83;;;16.33;;
44222;SDS011;29895;48.804;9.386;2023-02-14T10:39:46;32.08;;;15.98;;
44222;SDS011;29895;48.804;9.386;2023-02-14T10:47:37;33.83;;;16.35;;
44222;SDS011;29895;48.804;9.386;2023-02-14T10:50:14;31.83;;;15.90;;
44222;SDS011;29895;48.804;9.386;2023-02-14T10:55:53;29.80;;;14.48;;
44222;SDS011;29895;48.804;9.386;2023-02-14T10:58:22;31.13;;;15.85;;
44222;SDS011;29895;48.804;9.386;2023-02-14T11:00:52;33.38;;;15.75;;
44222;SDS011;29895;48.804;9.386;2023-02-14T11:03:27;31.23;;;15.95;;
44222;SDS011;29895;48.804;9.386;2023-02-14T11:05:54;30.75;;;15.70;;
44222;SDS011;29895;48.804;9.386;2023-02-14T11:10:59;31.85;;;15.57;;
44222;SDS011;29895;48.804;9.386;2023-02-14T11:13:33;30.45;;;15.45;;
44222;SDS011;29895;48.804;9.386;2023-02-14T11:16:01;29.00;;;14.40;;
44222;SDS011;29895;48.804;9.386;2023-02-14T11:18:32;34.58;;;15.57;;
44222;SDS011;29895;48.804;9.386;2023-02-14T11:21:11;30.98;;;15.35;;
44222;SDS011;29895;48.804;9.386;2023-02-14T11:28:57;30.80;;;15.30;;
44222;SDS011;29895;48.804;9.386;2023-02-14T11:33:52;33.75;;;15.98;;
44222;SDS011;29895;48.804;9.386;2023-02-14T11:36:18;38.38;;;16.17;;
44222;SDS011;29895;48.804;9.386;2023-02-14T11:38:46;29.52;;;15.88;;
44222;SDS011;29895;48.804;9.386;2023-02-14T11:44:14;30.52;;;14.68;;
44222;SDS011;29895;48.804;9.386;2023-02-14T11:46:47;31.02;;;16.00;;
44222;SDS011;29895;48.804;9.386;2023-02-14T11:51:52;35.08;;;16.42;;
44222;SDS011;29895;48.804;9.386;2023-02-14T11:54:27;32.38;;;16.00;;
44222;SDS011;29895;48.804;9.386;2023-02-14T12:02:48;29.27;;;14.63;;
44222;SDS011;29895;48.804;9.386;2023-02-14T12:05:02;32.97;;;15.65;;
44222;SDS011;29895;48.804;9.386;2023-02-14T12:07:32;26.92;;;14.90;;
44222;SDS011;29895;48.804;9.386;2023-02-14T12:10:06;27.73;;;14.53;;
44222;SDS011;29895;48.804;9.386;2023-02-14T12:12:57;32.05;;;15.07;;
44222;SDS011;29895;48.804;9.386;2023-02-14T12:15:27;29.38;;;14.57;;
44222;SDS011;29895;48.804;9.386;2023-02-14T12:20:41;26.65;;;14.50;;
44222;SDS011;29895;48.804;9.386;2023-02-14T12:23:25;29.98;;;14.20;;
44222;SDS011;29895;48.804;9.386;2023-02-14T12:26:27;31.00;;;14.02;;
44222;SDS011;29895;48.804;9.386;2023-02-14T12:29:09;27.80;;;14.20;;
44222;SDS011;29895;48.804;9.386;2023-02-14T12:31:40;23.63;;;13.25;;
44222;SDS011;29895;48.804;9.386;2023-02-14T12:34:09;28.42;;;14.15;;
44222;SDS011;29895;48.804;9.386;2023-02-14T12:45:24;25.13;;;13.35;;
44222;SDS011;29895;48.804;9.386;2023-02-14T12:48:15;30.20;;;13.40;;
44222;SDS011;29895;48.804;9.386;2023-02-14T13:06:30;28.35;;;14.20;;
44222;SDS011;29895;48.804;9.386;2023-02-14T13:12:14;29.08;;;14.13;;
44222;SDS011;29895;48.804;9.386;2023-02-14T13:23:02;27.92;;;13.65;;
44222;SDS011;29895;48.804;9.386;2023-02-14T13:25:41;31.45;;;14.13;;
44222;SDS011;29895;48.804;9.386;2023-02-14T13:28:14;27.67;;;15.07;;
44222;SDS011;29895;48.804;9.386;2023-02-14T13:30:40;26.83;;;14.32;;
44222;SDS011;29895;48.804;9.386;2023-02-14T13:33:20;29.30;;;14.10;;
44222;SDS011;29895;48.804;9.386;2023-02-14T13:35:48;30.83;;;15.57;;
44222;SDS011;29895;48.804;9.386;2023-02-14T13:38:15;29.80;;;14.25;;
44222;SDS011;29895;48.804;9.386;2023-02-14T13:40:42;28.52;;;14.32;;
44222;SDS011;29895;48.804;9.386;2023-02-14T13:43:09;34.63;;;14.82;;
44222;SDS011;29895;48.804;9.386;2023-02-14T13:48:05;30.73;;;14.73;;
44222;SDS011;29895;48.804;9.386;2023-02-14T13:50:37;29.35;;;16.08;;
44222;SDS011;29895;48.804;9.386;2023-02-14T13:53:12;28.85;;;14.02;;
44222;SDS011;29895;48.804;9.386;2023-02-14T13:55:48;28.75;;;14.82;;
44222;SDS011;29895;48.804;9.386;2023-02-14T13:58:20;28.00;;;14.95;;
44222;SDS011;29895;48.804;9.386;2023-02-14T14:00:47;34.03;;;15.57;;
44222;SDS011;29895;48.804;9.386;2023-02-14T14:09:50;37.03;;;17.20;;
44222;SDS011;29895;48.804;9.386;2023-02-14T14:12:02;34.92;;;14.65;;
44222;SDS011;29895;48.804;9.386;2023-02-14T14:15:07;33.72;;;16.10;;
44222;SDS011;29895;48.804;9.386;2023-02-14T14:22:50;33.13;;;16.42;;
44222;SDS011;29895;48.804;9.386;2023-02-14T14:28:18;37.97;;;15.93;;
44222;SDS011;29895;48.804;9.386;2023-02-14T14:30:45;29.63;;;15.80;;
44222;SDS011;29895;48.804;9.386;2023-02-14T14:33:22;29.80;;;15.45;;
44222;SDS011;29895;48.804;9.386;2023-02-14T14:38:18;33.95;;;17.45;;
44222;SDS011;29895;48.804;9.386;2023-02-14T14:40:44;37.65;;;16.38;;
44222;SDS011;29895;48.804;9.386;2023-02-14T14:43:12;31.50;;;16.65;;
44222;SDS011;29895;48.804;9.386;2023-02-14T14:45:38;35.10;;;17.42;;
44222;SDS011;29895;48.804;9.386;2023-02-14T14:50:55;36.65;;;16.73;;
44222;SDS011;29895;48.804;9.386;2023-02-14T14:56:00;36.58;;;17.83;;
44222;SDS011;29895;48.804;9.386;2023-02-14T15:03:24;32.17;;;15.57;;
44222;SDS011;29895;48.804;9.386;2023-02-14T15:06:00;37.85;;;17.67;;
44222;SDS011;29895;48.804;9.386;2023-02-14T15:08:29;38.50;;;16.42;;
44222;SDS011;29895;48.804;9.386;2023-02-14T15:14:06;31.80;;;17.08;;
44222;SDS011;29895;48.804;9.386;2023-02-14T15:16:27;38.08;;;18.52;;
44222;SDS011;29895;48.804;9.386;2023-02-14T15:18:59;38.58;;;17.92;;
44222;SDS011;29895;48.804;9.386;2023-02-14T15:22:01;38.28;;;17.85;;
44222;SDS011;29895;48.804;9.386;2023-02-14T15:24:30;32.13;;;17.27;;
44222;SDS011;29895;48.804;9.386;2023-02-14T15:27:00;41.78;;;19.23;;
44222;SDS011;29895;48.804;9.386;2023-02-14T15:29:31;35.67;;;18.00;;
44222;SDS011;29895;48.804;9.386;2023-02-14T15:31:57;36.17;;;18.58;;
44222;SDS011;29895;48.804;9.386;2023-02-14T15:34:29;40.17;;;19.48;;
44222;SDS011;29895;48.804;9.386;2023-02-14T15:36:59;37.15;;;19.83;;
44222;SDS011;29895;48.804;9.386;2023-02-14T15:39:45;36.67;;;19.30;;
44222;SDS011;29895;48.804;9.386;2023-02-14T15:42:20;37.03;;;18.95;;
44222;SDS011;29895;48.804;9.386;2023-02-14T15:45:13;36.30;;;18.45;;
44222;SDS011;29895;48.804;9.386;2023-02-14T15:47:49;35.83;;;18.90;;
44222;SDS011;29895;48.804;9.386;2023-02-14T15:50:17;34.75;;;18.80;;
44222;SDS011;29895;48.804;9.386;2023-02-14T15:52:45;38.67;;;19.85;;
44222;SDS011;29895;48.804;9.386;2023-02-14T15:55:15;37.00;;;18.23;;
44222;SDS011;29895;48.804;9.386;2023-02-14T15:57:43;38.40;;;18.88;;
44222;SDS011;29895;48.804;9.386;2023-02-14T16:00:15;35.38;;;18.50;;
44222;SDS011;29895;48.804;9.386;2023-02-14T16:02:45;33.40;;;18.02;;
44222;SDS011;29895;48.804;9.386;2023-02-14T16:05:18;33.88;;;18.30;;
44222;SDS011;29895;48.804;9.386;2023-02-14T16:13:01;35.95;;;18.30;;
44222;SDS011;29895;48.804;9.386;2023-02-14T16:15:54;33.58;;;18.58;;
44222;SDS011;29895;48.804;9.386;2023-02-14T16:18:32;38.40;;;19.23;;
44222;SDS011;29895;48.804;9.386;2023-02-14T16:21:18;34.33;;;17.55;;
44222;SDS011;29895;48.804;9.386;2023-02-14T16:26:35;36.70;;;18.63;;
44222;SDS011;29895;48.804;9.386;2023-02-14T16:29:05;32.42;;;17.75;;
44222;SDS011;29895;48.804;9.386;2023-02-14T16:31:40;38.22;;;18.17;;
44222;SDS011;29895;48.804;9.386;2023-02-14T16:34:11;34.10;;;18.23;;
44222;SDS011;29895;48.804;9.386;2023-02-14T16:36:38;36.92;;;18.40;;
44222;SDS011;29895;48.804;9.386;2023-02-14T16:39:04;38.55;;;18.77;;
44222;SDS011;29895;48.804;9.386;2023-02-14T16:41:35;38.10;;;19.10;;
44222;SDS011;29895;48.804;9.386;2023-02-14T16:44:05;37.03;;;18.95;;
44222;SDS011;29895;48.804;9.386;2023-02-14T16:46:36;38.67;;;18.73;;
44222;SDS011;29895;48.804;9.386;2023-02-14T16:49:01;35.17;;;19.10;;
44222;SDS011;29895;48.804;9.386;2023-02-14T16:51:28;39.50;;;19.02;;
44222;SDS011;29895;48.804;9.386;2023-02-14T16:53:57;39.05;;;20.30;;
44222;SDS011;29895;48.804;9.386;2023-02-14T16:56:29;41.10;;;20.15;;
44222;SDS011;29895;48.804;9.386;2023-02-14T16:59:02;46.80;;;21.75;;
44222;SDS011;29895;48.804;9.386;2023-02-14T17:01:28;39.10;;;19.90;;
44222;SDS011;29895;48.804;9.386;2023-02-14T17:03:56;41.83;;;20.10;;
44222;SDS011;29895;48.804;9.386;2023-02-14T17:06:23;40.40;;;19.90;;
44222;SDS011;29895;48.804;9.386;2023-02-14T17:08:51;36.63;;;19.27;;
44222;SDS011;29895;48.804;9.386;2023-02-14T17:11:19;44.08;;;21.13;;
44222;SDS011;29895;48.804;9.386;2023-02-14T17:13:46;42.88;;;20.73;;
44222;SDS011;29895;48.804;9.386;2023-02-14T17:16:13;46.72;;;21.40;;
44222;SDS011;29895;48.804;9.386;2023-02-14T17:18:40;50.83;;;22.40;;
44222;SDS011;29895;48.804;9.386;2023-02-14T17:21:07;45.95;;;22.90;;
44222;SDS011;29895;48.804;9.386;2023-02-14T17:23:34;47.90;;;23.70;;
44222;SDS011;29895;48.804;9.386;2023-02-14T17:25:59;46.17;;;22.63;;
44222;SDS011;29895;48.804;9.386;2023-02-14T17:28:25;51.25;;;23.85;;
44222;SDS011;29895;48.804;9.386;2023-02-14T17:30:51;50.92;;;23.65;;
44222;SDS011;29895;48.804;9.386;2023-02-14T17:33:18;60.28;;;29.25;;